createdAt,value
2022-09-14T00:01:38.778Z,15.95
2022-09-14T00:04:10.843Z,16.75
2022-09-14T00:06:40.835Z,15.57
2022-09-14T00:09:11.418Z,18.77
2022-09-14T00:11:41.313Z,14.85
2022-09-14T00:14:09.581Z,17.08
2022-09-14T00:16:39.756Z,13.20
2022-09-14T00:19:10.313Z,12.93
2022-09-14T00:21:42.526Z,14.77
2022-09-14T00:24:12.603Z,13.98
2022-09-14T00:26:40.763Z,19.05
2022-09-14T00:29:08.852Z,13.00
2022-09-14T00:31:39.677Z,13.98
2022-09-14T00:34:10.724Z,14.73
2022-09-14T00:36:42.510Z,10.85
2022-09-14T00:39:10.849Z,20.02
2022-09-14T00:41:40.842Z,14.75
2022-09-14T00:44:29.740Z,16.35
2022-09-14T00:47:02.392Z,19.90
2022-09-14T00:49:33.074Z,14.00
2022-09-14T00:52:08.851Z,18.65
2022-09-14T00:54:37.949Z,13.95
2022-09-14T00:57:06.417Z,12.13
2022-09-14T00:59:38.434Z,15.80
2022-09-14T01:02:10.520Z,10.35
2022-09-14T01:04:39.667Z,14.55
2022-09-14T01:07:17.279Z,12.88
2022-09-14T01:09:52.202Z,14.18
2022-09-14T01:12:27.684Z,11.13
2022-09-14T01:15:02.419Z,18.35
2022-09-14T01:17:38.154Z,16.02
2022-09-14T01:20:24.776Z,16.55
2022-09-14T01:23:04.356Z,13.85
2022-09-14T01:26:15.038Z,11.40
2022-09-14T01:28:53.595Z,16.98
2022-09-14T01:31:28.445Z,13.70
2022-09-14T01:34:03.932Z,10.85
2022-09-14T01:36:35.188Z,13.02
2022-09-14T01:39:05.020Z,13.55
2022-09-14T01:41:35.128Z,9.82
2022-09-14T01:44:10.572Z,12.38
2022-09-14T01:46:42.335Z,13.18
2022-09-14T01:49:15.192Z,11.48
2022-09-14T01:51:46.888Z,11.63
2022-09-14T01:54:19.336Z,12.55
2022-09-14T01:56:53.374Z,10.95
2022-09-14T01:59:26.127Z,11.73
2022-09-14T02:01:58.423Z,13.50
2022-09-14T02:04:37.127Z,8.80
2022-09-14T02:07:05.328Z,7.85
2022-09-14T02:09:33.977Z,9.55
2022-09-14T02:12:02.661Z,14.05
2022-09-14T02:14:32.716Z,11.82
2022-09-14T02:17:01.126Z,12.73
2022-09-14T02:19:36.824Z,14.35
2022-09-14T02:22:05.388Z,14.63
2022-09-14T02:24:34.983Z,17.25
2022-09-14T02:27:04.657Z,14.75
2022-09-14T02:29:35.012Z,13.13
2022-09-14T02:32:19.080Z,11.63
2022-09-14T02:34:55.062Z,13.25
2022-09-14T02:37:30.784Z,16.50
2022-09-14T02:40:05.332Z,13.27
2022-09-14T02:42:42.540Z,16.58
2022-09-14T02:45:22.744Z,13.40
2022-09-14T02:47:56.383Z,11.45
2022-09-14T02:50:30.453Z,12.45
2022-09-14T02:53:06.205Z,10.57
2022-09-14T02:55:38.837Z,10.95
2022-09-14T02:58:08.792Z,12.60
2022-09-14T03:00:41.441Z,8.77
2022-09-14T03:03:12.021Z,10.93
2022-09-14T03:05:41.008Z,12.68
2022-09-14T03:08:10.416Z,12.93
2022-09-14T03:10:39.529Z,16.05
2022-09-14T03:13:08.040Z,15.88
2022-09-14T03:15:37.688Z,8.57
2022-09-14T03:18:11.113Z,15.02
2022-09-14T03:20:41.783Z,11.55
2022-09-14T03:23:11.105Z,12.50
2022-09-14T03:25:40.779Z,11.88
2022-09-14T03:28:10.720Z,14.48
2022-09-14T03:30:40.320Z,13.85
2022-09-14T03:33:08.583Z,8.57
2022-09-14T03:35:36.717Z,9.20
2022-09-14T03:38:05.063Z,11.85
2022-09-14T03:40:33.437Z,10.02
2022-09-14T03:43:01.567Z,9.90
2022-09-14T03:45:29.720Z,14.90
2022-09-14T03:47:59.256Z,21.42
2022-09-14T03:50:27.396Z,19.73
2022-09-14T03:52:56.224Z,16.48
2022-09-14T03:55:24.400Z,12.73
2022-09-14T03:57:55.349Z,15.80
2022-09-14T04:00:23.975Z,11.82
2022-09-14T04:02:52.583Z,18.45
2022-09-14T04:05:22.183Z,13.90
2022-09-14T04:07:50.284Z,11.48
2022-09-14T04:10:19.059Z,11.63
2022-09-14T04:12:47.116Z,10.80
2022-09-14T04:15:15.215Z,18.33
2022-09-14T04:17:43.283Z,15.50
2022-09-14T04:20:11.816Z,12.85
2022-09-14T04:22:41.504Z,16.38
2022-09-14T04:25:10.799Z,12.32
2022-09-14T04:27:39.121Z,14.80
2022-09-14T04:30:08.239Z,17.80
2022-09-14T04:32:36.307Z,19.83
2022-09-14T04:35:04.948Z,13.98
2022-09-14T04:37:33.761Z,22.98
2022-09-14T04:40:04.014Z,22.50
2022-09-14T04:42:32.341Z,18.45
2022-09-14T04:45:00.508Z,19.63
2022-09-14T04:47:30.061Z,21.73
2022-09-14T04:49:58.528Z,16.00
2022-09-14T04:52:26.652Z,18.00
2022-09-14T04:54:54.784Z,21.13
2022-09-14T04:57:24.418Z,16.52
2022-09-14T04:59:52.575Z,18.23
2022-09-14T05:02:20.899Z,17.90
2022-09-14T05:04:49.167Z,17.80
2022-09-14T05:07:17.469Z,18.92
2022-09-14T05:09:45.611Z,18.75
2022-09-14T05:12:13.694Z,19.98
2022-09-14T05:14:43.201Z,19.70
2022-09-14T05:17:11.456Z,18.23
2022-09-14T05:19:39.564Z,17.15
2022-09-14T05:22:07.724Z,25.63
2022-09-14T05:24:35.881Z,23.77
2022-09-14T05:27:04.065Z,46.53
2022-09-14T05:29:32.176Z,37.55
2022-09-14T05:32:01.810Z,28.52
2022-09-14T05:34:29.936Z,26.52
2022-09-14T05:36:58.119Z,22.63
2022-09-14T05:39:26.526Z,17.65
2022-09-14T05:41:54.697Z,20.27
2022-09-14T05:44:22.758Z,13.55
2022-09-14T05:46:50.939Z,19.40
2022-09-14T05:49:20.522Z,23.25
2022-09-14T05:51:48.631Z,18.65
2022-09-14T05:54:16.820Z,12.13
2022-09-14T05:56:44.920Z,18.33
2022-09-14T05:59:13.063Z,15.15
2022-09-14T06:01:41.529Z,16.00
2022-09-14T06:04:12.632Z,12.80
2022-09-14T06:06:49.312Z,12.88
2022-09-14T06:09:25.127Z,14.55
2022-09-14T06:11:53.248Z,15.32
2022-09-14T06:14:21.491Z,14.50
2022-09-14T06:16:49.559Z,14.60
2022-09-14T06:19:17.993Z,21.65
2022-09-14T06:21:47.436Z,14.93
2022-09-14T06:24:15.559Z,13.40
2022-09-14T06:26:43.708Z,17.08
2022-09-14T06:29:11.972Z,16.08
2022-09-14T06:31:40.896Z,17.73
2022-09-14T06:34:09.024Z,18.30
2022-09-14T06:36:38.289Z,19.33
2022-09-14T06:39:07.833Z,21.60
2022-09-14T06:41:36.141Z,16.65
2022-09-14T06:44:04.898Z,18.27
2022-09-14T06:46:34.569Z,14.63
2022-09-14T06:49:05.008Z,30.52
2022-09-14T06:51:34.857Z,18.00
2022-09-14T06:54:04.090Z,21.07
2022-09-14T06:56:37.444Z,18.03
2022-09-14T06:59:06.546Z,18.37
2022-09-14T07:01:35.362Z,21.10
2022-09-14T07:04:04.260Z,23.70
2022-09-14T07:06:39.415Z,20.87
2022-09-14T07:09:07.828Z,18.00
2022-09-14T07:11:38.500Z,15.00
2022-09-14T07:14:07.213Z,18.70
2022-09-14T07:16:37.382Z,23.00
2022-09-14T07:19:07.670Z,20.90
2022-09-14T07:21:36.150Z,16.60
2022-09-14T07:24:04.688Z,14.43
2022-09-14T07:26:35.363Z,19.07
2022-09-14T07:29:06.424Z,20.10
2022-09-14T07:31:36.970Z,19.77
2022-09-14T07:34:06.137Z,20.80
2022-09-14T07:36:37.442Z,16.60
2022-09-14T07:39:07.729Z,21.53
2022-09-14T07:41:36.747Z,16.93
2022-09-14T07:44:08.548Z,18.97
2022-09-14T07:46:40.225Z,19.10
2022-09-14T07:49:09.585Z,21.40
2022-09-14T07:51:38.980Z,18.20
2022-09-14T07:54:08.550Z,21.83
2022-09-14T07:56:36.720Z,23.37
2022-09-14T07:59:33.569Z,23.90
2022-09-14T08:01:54.824Z,26.43
2022-09-14T08:04:23.415Z,17.70
2022-09-14T08:06:51.508Z,24.40
2022-09-14T08:09:19.785Z,38.67
2022-09-14T08:11:47.895Z,21.57
2022-09-14T08:14:17.444Z,20.13
2022-09-14T08:16:45.871Z,22.50
2022-09-14T08:19:15.701Z,21.40
2022-09-14T08:21:47.153Z,21.87
2022-09-14T08:24:18.450Z,19.70
2022-09-14T08:26:47.445Z,23.67
2022-09-14T08:29:18.631Z,22.50
2022-09-14T08:31:47.479Z,30.53
2022-09-14T08:34:17.306Z,21.07
2022-09-14T08:36:47.089Z,23.87
2022-09-14T08:39:16.966Z,23.57
2022-09-14T08:41:52.948Z,20.67
2022-09-14T08:44:27.435Z,25.90
2022-09-14T08:47:01.905Z,25.37
2022-09-14T08:49:44.190Z,32.60
2022-09-14T08:52:22.673Z,30.43
2022-09-14T08:54:54.866Z,34.93
2022-09-14T08:57:30.786Z,28.17
2022-09-14T09:00:07.668Z,34.97
2022-09-14T09:02:57.988Z,23.47
2022-09-14T09:05:41.630Z,27.00
2022-09-14T09:08:18.835Z,27.10
2022-09-14T09:10:49.187Z,29.30
2022-09-14T09:13:20.889Z,30.77
2022-09-14T09:15:52.934Z,28.83
2022-09-14T09:18:24.821Z,25.57
2022-09-14T09:20:55.812Z,30.80
2022-09-14T09:23:25.775Z,27.50
2022-09-14T09:25:58.909Z,29.30
2022-09-14T09:28:29.043Z,27.00
2022-09-14T09:31:02.473Z,29.20
2022-09-14T09:33:31.925Z,27.03
2022-09-14T09:36:01.328Z,27.57
2022-09-14T09:38:31.120Z,26.80
2022-09-14T09:41:03.262Z,20.57
2022-09-14T09:43:48.910Z,36.70
2022-09-14T09:46:19.363Z,28.13
2022-09-14T09:48:49.004Z,24.23
2022-09-14T09:51:26.738Z,25.07
2022-09-14T09:54:11.129Z,28.17
2022-09-14T09:56:42.670Z,25.63
2022-09-14T09:59:28.809Z,24.10
2022-09-14T10:02:15.204Z,28.07
2022-09-14T10:05:01.560Z,23.87
2022-09-14T10:07:32.169Z,23.27
2022-09-14T10:10:08.005Z,28.63
2022-09-14T10:12:37.351Z,24.60
2022-09-14T10:15:17.038Z,24.20
2022-09-14T10:18:08.936Z,23.37
2022-09-14T10:20:38.237Z,22.33
2022-09-14T10:23:26.169Z,17.93
2022-09-14T10:26:15.374Z,17.53
2022-09-14T10:28:45.166Z,15.47
2022-09-14T10:31:23.437Z,14.67
2022-09-14T10:33:56.763Z,14.83
2022-09-14T10:36:30.016Z,19.67
2022-09-14T10:39:04.238Z,15.77
2022-09-14T10:41:40.027Z,17.27
2022-09-14T10:44:32.320Z,15.33
2022-09-14T10:47:27.085Z,19.23
2022-09-14T10:50:11.699Z,18.90
2022-09-14T10:52:48.985Z,15.57
2022-09-14T10:55:34.772Z,17.30
2022-09-14T10:58:20.195Z,13.97
2022-09-14T11:01:04.220Z,17.10
2022-09-14T11:03:49.383Z,14.67
2022-09-14T11:06:32.691Z,14.37
2022-09-14T11:09:04.854Z,13.20
2022-09-14T11:11:45.090Z,12.13
2022-09-14T11:14:26.079Z,16.30
2022-09-14T11:17:05.386Z,12.80
2022-09-14T11:19:43.180Z,11.30
2022-09-14T11:22:19.965Z,14.30
2022-09-14T11:24:53.103Z,13.50
2022-09-14T11:27:28.340Z,13.03
2022-09-14T11:30:01.502Z,12.70
2022-09-14T11:32:35.159Z,13.90
2022-09-14T11:35:20.518Z,15.10
2022-09-14T11:37:58.350Z,14.27
2022-09-14T11:40:33.448Z,13.30
2022-09-14T11:43:13.437Z,13.77
2022-09-14T11:45:51.757Z,15.30
2022-09-14T11:48:43.754Z,10.07
2022-09-14T11:51:16.648Z,13.00
2022-09-14T11:53:48.638Z,12.37
2022-09-14T11:56:27.140Z,13.37
2022-09-14T11:58:58.007Z,13.87
2022-09-14T12:01:32.741Z,12.07
2022-09-14T12:04:15.448Z,11.83
2022-09-14T12:06:54.625Z,14.73
2022-09-14T12:09:45.550Z,16.03
2022-09-14T12:12:37.955Z,16.40
2022-09-14T12:15:16.717Z,12.20
2022-09-14T12:17:45.961Z,13.83
2022-09-14T12:20:40.576Z,15.53
2022-09-14T12:23:36.436Z,14.07
2022-09-14T12:26:29.357Z,18.53
2022-09-14T12:29:02.745Z,18.40
2022-09-14T12:31:41.308Z,21.47
2022-09-14T12:34:21.177Z,16.87
2022-09-14T12:37:28.475Z,42.97
2022-09-14T12:40:36.489Z,19.47
2022-09-14T12:43:48.520Z,19.80
2022-09-14T12:46:38.743Z,26.23
2022-09-14T12:49:29.000Z,17.90
2022-09-14T12:52:00.336Z,22.67
2022-09-14T12:54:40.430Z,20.53
2022-09-14T12:57:23.047Z,18.27
2022-09-14T12:59:56.508Z,23.33
2022-09-14T13:03:09.642Z,21.90
2022-09-14T13:05:43.981Z,28.30
2022-09-14T13:08:13.249Z,27.20
2022-09-14T13:10:47.143Z,23.90
2022-09-14T13:13:19.431Z,26.33
2022-09-14T13:15:54.168Z,20.27
2022-09-14T13:18:34.134Z,21.00
2022-09-14T13:21:17.873Z,20.03
2022-09-14T13:23:46.323Z,21.13
2022-09-14T13:26:19.403Z,21.67
2022-09-14T13:28:49.920Z,16.37
2022-09-14T13:31:20.735Z,17.50
2022-09-14T13:33:51.365Z,16.80
2022-09-14T13:36:23.604Z,37.43
2022-09-14T13:38:52.944Z,41.33
2022-09-14T13:41:23.637Z,25.60
2022-09-14T13:43:55.591Z,72.80
2022-09-14T13:46:25.741Z,22.57
2022-09-14T13:48:54.992Z,63.83
2022-09-14T13:51:27.610Z,108.17
2022-09-14T13:53:57.993Z,25.90
2022-09-14T13:56:31.518Z,17.57
2022-09-14T13:59:21.618Z,21.23
2022-09-14T14:01:57.257Z,17.43
2022-09-14T14:04:37.596Z,18.47
2022-09-14T14:07:20.000Z,16.30
2022-09-14T14:09:51.140Z,14.90
2022-09-14T14:12:26.410Z,18.90
2022-09-14T14:14:59.269Z,19.37
2022-09-14T14:17:39.323Z,18.20
2022-09-14T14:20:33.371Z,19.60
2022-09-14T14:23:21.456Z,17.17
2022-09-14T14:25:54.592Z,15.20
2022-09-14T14:28:26.696Z,14.17
2022-09-14T14:30:56.646Z,13.23
2022-09-14T14:33:25.810Z,14.73
2022-09-14T14:35:56.693Z,28.30
2022-09-14T14:38:26.937Z,45.27
2022-09-14T14:40:58.410Z,44.23
2022-09-14T14:43:28.253Z,14.47
2022-09-14T14:45:58.963Z,81.93
2022-09-14T14:48:27.871Z,23.60
2022-09-14T14:50:56.473Z,14.67
2022-09-14T14:53:27.168Z,16.70
2022-09-14T14:55:55.406Z,15.50
2022-09-14T14:58:24.483Z,17.73
2022-09-14T15:00:53.025Z,15.23
2022-09-14T15:03:21.285Z,18.00
2022-09-14T15:05:50.447Z,23.00
2022-09-14T15:08:21.031Z,17.97
2022-09-14T15:10:57.899Z,17.80
2022-09-14T15:13:26.244Z,20.33
2022-09-14T15:15:55.218Z,24.80
2022-09-14T15:18:24.000Z,25.50
2022-09-14T15:20:52.376Z,29.40
2022-09-14T15:23:20.545Z,27.23
2022-09-14T15:25:54.045Z,28.63
2022-09-14T15:28:22.329Z,20.30
2022-09-14T15:30:51.901Z,21.73
2022-09-14T15:33:20.233Z,20.70
2022-09-14T15:35:56.205Z,18.57
2022-09-14T15:38:24.809Z,20.80
2022-09-14T15:40:54.396Z,16.70
2022-09-14T15:43:22.844Z,20.07
2022-09-14T15:45:51.247Z,17.50
2022-09-14T15:48:20.133Z,17.77
2022-09-14T15:50:49.599Z,20.70
2022-09-14T15:53:18.443Z,17.70
2022-09-14T15:55:47.440Z,20.80
2022-09-14T15:58:17.292Z,17.03
2022-09-14T16:00:45.891Z,20.87
2022-09-14T16:03:14.230Z,20.53
2022-09-14T16:05:42.433Z,18.57
2022-09-14T16:08:10.685Z,21.67
2022-09-14T16:10:39.186Z,15.10
2022-09-14T16:13:07.757Z,16.80
2022-09-14T16:15:37.563Z,19.20
2022-09-14T16:18:06.069Z,21.17
2022-09-14T16:20:36.870Z,22.00
2022-09-14T16:23:05.284Z,20.43
2022-09-14T16:25:40.620Z,19.43
2022-09-14T16:28:09.372Z,39.53
2022-09-14T16:30:39.219Z,25.80
2022-09-14T16:33:07.530Z,23.00
2022-09-14T16:35:35.843Z,23.33
2022-09-14T16:38:05.212Z,23.57
2022-09-14T16:40:34.348Z,20.07
2022-09-14T16:43:02.659Z,20.63
2022-09-14T16:45:30.941Z,20.42
2022-09-14T16:48:00.925Z,15.98
2022-09-14T16:50:29.595Z,15.60
2022-09-14T16:52:58.400Z,16.00
2022-09-14T16:55:26.855Z,18.90
2022-09-14T16:57:55.444Z,15.48
2022-09-14T17:00:23.950Z,17.30
2022-09-14T17:02:53.391Z,16.67
2022-09-14T17:05:23.141Z,16.02
2022-09-14T17:07:51.669Z,14.35
2022-09-14T17:10:20.179Z,12.73
2022-09-14T17:12:49.044Z,12.82
2022-09-14T17:15:17.845Z,12.90
2022-09-14T17:17:46.133Z,12.00
2022-09-14T17:20:14.768Z,12.30
2022-09-14T17:22:45.179Z,19.42
2022-09-14T17:25:16.921Z,14.50
2022-09-14T17:27:45.724Z,16.48
2022-09-14T17:30:15.029Z,17.35
2022-09-14T17:32:43.324Z,23.88
2022-09-14T17:35:11.910Z,21.90
2022-09-14T17:37:40.525Z,25.52
2022-09-14T17:40:11.869Z,21.13
2022-09-14T17:42:42.699Z,28.35
2022-09-14T17:45:12.719Z,36.47
2022-09-14T17:47:41.436Z,38.53
2022-09-14T17:50:10.616Z,42.30
2022-09-14T17:52:38.845Z,40.60
2022-09-14T17:55:09.495Z,42.10
2022-09-14T17:57:38.261Z,46.35
2022-09-14T18:00:07.504Z,44.55
2022-09-14T18:02:36.123Z,55.65
2022-09-14T18:05:05.396Z,58.00
2022-09-14T18:07:34.310Z,54.33
2022-09-14T18:10:02.693Z,54.33
2022-09-14T18:12:36.821Z,60.80
2022-09-14T18:15:06.308Z,47.72
2022-09-14T18:17:34.721Z,52.05
2022-09-14T18:20:03.899Z,53.00
2022-09-14T18:22:32.496Z,55.42
2022-09-14T18:25:06.899Z,68.20
2022-09-14T18:27:37.377Z,60.72
2022-09-14T18:30:07.747Z,64.35
2022-09-14T18:32:38.413Z,61.38
2022-09-14T18:35:09.985Z,55.95
2022-09-14T18:37:38.787Z,76.10
2022-09-14T18:40:13.884Z,73.63
2022-09-14T18:42:45.696Z,53.78
2022-09-14T18:45:15.381Z,70.88
2022-09-14T18:47:46.000Z,90.32
2022-09-14T18:50:15.094Z,81.05
2022-09-14T18:52:43.342Z,95.43
2022-09-14T18:55:11.770Z,100.43
2022-09-14T18:57:40.642Z,78.88
2022-09-14T19:00:17.736Z,87.60
2022-09-14T19:02:53.223Z,100.45
2022-09-14T19:05:22.438Z,97.75
2022-09-14T19:07:54.060Z,79.97
2022-09-14T19:10:23.327Z,86.57
2022-09-14T19:12:52.081Z,90.60
2022-09-14T19:15:22.434Z,69.45
2022-09-14T19:17:50.993Z,80.55
2022-09-14T19:20:22.225Z,97.22
2022-09-14T19:22:52.076Z,111.22
2022-09-14T19:25:20.811Z,88.75
2022-09-14T19:27:49.824Z,71.97
2022-09-14T19:30:18.172Z,92.05
2022-09-14T19:32:48.050Z,92.50
2022-09-14T19:35:16.495Z,61.83
2022-09-14T19:37:44.853Z,96.35
2022-09-14T19:40:14.044Z,59.35
2022-09-14T19:42:42.289Z,69.00
2022-09-14T19:45:12.353Z,60.83
2022-09-14T19:47:41.470Z,51.58
2022-09-14T19:50:14.311Z,54.58
2022-09-14T19:52:42.487Z,57.35
2022-09-14T19:55:13.340Z,49.85
2022-09-14T19:57:41.715Z,57.13
2022-09-14T20:00:17.973Z,47.13
2022-09-14T20:02:46.431Z,52.00
2022-09-14T20:05:16.890Z,42.20
2022-09-14T20:07:45.301Z,47.03
2022-09-14T20:10:13.496Z,83.18
2022-09-14T20:12:41.578Z,53.45
2022-09-14T20:15:10.406Z,51.45
2022-09-14T20:17:38.578Z,37.55
2022-09-14T20:20:07.604Z,50.20
2022-09-14T20:22:37.276Z,46.38
2022-09-14T20:25:06.397Z,51.95
2022-09-14T20:27:34.620Z,45.60
2022-09-14T20:30:02.775Z,46.05
2022-09-14T20:32:31.224Z,49.05
2022-09-14T20:34:59.461Z,34.08
2022-09-14T20:37:29.120Z,34.92
2022-09-14T20:39:58.770Z,30.52
2022-09-14T20:42:27.080Z,32.63
2022-09-14T20:44:55.263Z,34.83
2022-09-14T20:47:24.400Z,33.58
2022-09-14T20:49:52.531Z,23.25
2022-09-14T20:52:20.668Z,25.40
2022-09-14T20:54:48.721Z,23.88
2022-09-14T20:57:18.321Z,23.88
2022-09-14T20:59:46.579Z,23.08
2022-09-14T21:02:14.901Z,26.35
2022-09-14T21:04:43.184Z,21.50
2022-09-14T21:07:12.561Z,27.30
2022-09-14T21:09:40.766Z,17.40
2022-09-14T21:12:11.797Z,15.68
2022-09-14T21:14:42.622Z,17.10
2022-09-14T21:17:10.925Z,18.40
2022-09-14T21:19:39.240Z,15.88
2022-09-14T21:22:07.926Z,20.55
2022-09-14T21:24:36.303Z,20.70
2022-09-14T21:27:04.911Z,19.48
2022-09-14T21:29:33.223Z,26.17
2022-09-14T21:32:06.905Z,14.82
2022-09-14T21:34:36.996Z,14.10
2022-09-14T21:37:05.311Z,16.70
2022-09-14T21:39:34.107Z,31.25
2022-09-14T21:42:02.315Z,19.48
2022-09-14T21:44:31.563Z,16.38
2022-09-14T21:46:59.821Z,20.50
2022-09-14T21:49:30.221Z,29.15
2022-09-14T21:51:58.371Z,12.77
2022-09-14T21:54:27.231Z,19.77
2022-09-14T21:56:55.609Z,11.02
2022-09-14T21:59:25.051Z,24.55
2022-09-14T22:01:53.377Z,12.50
2022-09-14T22:04:24.446Z,16.92
2022-09-14T22:06:54.517Z,7.90
2022-09-14T22:09:24.738Z,9.35
2022-09-14T22:11:53.332Z,9.55
2022-09-14T22:14:25.176Z,8.50
2022-09-14T22:16:53.898Z,9.82
2022-09-14T22:19:24.085Z,9.48
2022-09-14T22:21:53.738Z,10.52
2022-09-14T22:24:24.065Z,18.45
2022-09-14T22:26:52.537Z,13.13
2022-09-14T22:29:20.990Z,11.00
2022-09-14T22:31:49.562Z,8.88
2022-09-14T22:34:18.416Z,8.45
2022-09-14T22:36:46.985Z,17.00
2022-09-14T22:39:16.792Z,7.68
2022-09-14T22:41:45.480Z,7.05
2022-09-14T22:44:14.120Z,6.28
2022-09-14T22:46:42.661Z,4.60
2022-09-14T22:49:11.374Z,7.10
2022-09-14T22:51:39.849Z,6.07
2022-09-14T22:54:08.781Z,7.35
2022-09-14T22:56:40.292Z,14.50
2022-09-14T22:59:10.014Z,10.60
2022-09-14T23:01:40.562Z,6.88
2022-09-14T23:04:10.946Z,7.05
2022-09-14T23:06:41.455Z,8.10
2022-09-14T23:09:11.832Z,5.22
2022-09-14T23:11:42.216Z,4.15
2022-09-14T23:14:10.352Z,4.45
2022-09-14T23:16:38.772Z,3.25
2022-09-14T23:19:07.929Z,4.60
2022-09-14T23:21:36.837Z,3.25
2022-09-14T23:24:07.899Z,2.95
2022-09-14T23:26:36.117Z,3.10
2022-09-14T23:29:09.588Z,3.50
2022-09-14T23:31:37.830Z,4.50
2022-09-14T23:34:06.663Z,6.25
2022-09-14T23:36:35.225Z,10.00
2022-09-14T23:39:08.156Z,14.07
2022-09-14T23:41:36.383Z,9.77
2022-09-14T23:44:06.094Z,8.60
2022-09-14T23:46:34.446Z,14.15
2022-09-14T23:49:02.704Z,6.63
2022-09-14T23:51:31.217Z,10.32
2022-09-14T23:53:59.459Z,12.20
2022-09-14T23:56:27.712Z,13.50
2022-09-14T23:58:56.377Z,14.80
